createdAt,value
2017-02-12T00:00:16.212Z,90.21
2017-02-12T00:01:29.257Z,90.26
2017-02-12T00:02:42.314Z,90.49
2017-02-12T00:03:55.453Z,90.64
2017-02-12T00:05:08.517Z,90.26
2017-02-12T00:06:21.172Z,90.82
2017-02-12T00:07:34.213Z,90.73
2017-02-12T00:08:47.308Z,91.15
2017-02-12T00:10:00.320Z,91.58
2017-02-12T00:11:13.424Z,91.25
2017-02-12T00:12:26.481Z,91.44
2017-02-12T00:13:38.748Z,91.3
2017-02-12T00:14:51.839Z,91.2
2017-02-12T00:16:04.912Z,90.82
2017-02-12T00:17:18.003Z,91.06
2017-02-12T00:18:31.330Z,91.25
2017-02-12T00:19:43.997Z,91.49
2017-02-12T00:20:57.069Z,91.49
2017-02-12T00:22:09.769Z,91.34
2017-02-12T00:23:22.851Z,91.39
2017-02-12T00:24:35.896Z,91.49
2017-02-12T00:25:48.929Z,91.11
2017-02-12T00:27:01.972Z,91.44
2017-02-12T00:28:14.659Z,91.63
2017-02-12T00:29:27.663Z,91.91
2017-02-12T00:30:40.738Z,91.67
2017-02-12T00:31:53.842Z,91.3
2017-02-12T00:33:06.936Z,91.39
2017-02-12T00:34:19.997Z,91.67
2017-02-12T00:35:32.692Z,91.67
2017-02-12T00:36:45.781Z,91.77
2017-02-12T00:37:58.811Z,91.39
2017-02-12T00:39:11.832Z,91.58
2017-02-12T00:40:24.883Z,91.96
2017-02-12T00:41:37.246Z,92.43
2017-02-12T00:42:50.324Z,91.77
2017-02-12T00:44:03.400Z,91.67
2017-02-12T00:45:16.096Z,91.86
2017-02-12T00:46:29.217Z,91.96
2017-02-12T00:47:42.269Z,91.77
2017-02-12T00:48:55.322Z,92.05
2017-02-12T00:50:08.368Z,92.61
2017-02-12T00:51:21.407Z,92.33
2017-02-12T00:52:34.561Z,92.14
2017-02-12T00:53:47.587Z,91.82
2017-02-12T00:55:00.732Z,91.3
2017-02-12T00:56:13.846Z,91.67
2017-02-12T00:57:26.917Z,91.77
2017-02-12T00:58:39.563Z,92.14
2017-02-12T00:59:52.613Z,92.14
2017-02-12T01:01:05.724Z,92.05
2017-02-12T01:02:18.757Z,92.24
2017-02-12T01:03:31.427Z,92.52
2017-02-12T01:04:44.519Z,91.96
2017-02-12T01:05:57.592Z,92.61
2017-02-12T01:07:10.662Z,92.05
2017-02-12T01:08:23.359Z,92.29
2017-02-12T01:09:36.377Z,92.47
2017-02-12T01:10:49.434Z,92.66
2017-02-12T01:12:02.518Z,92.47
2017-02-12T01:13:15.192Z,92.24
2017-02-12T01:14:28.273Z,92.57
2017-02-12T01:15:40.931Z,92.05
2017-02-12T01:16:53.990Z,92.38
2017-02-12T01:18:07.052Z,92.24
2017-02-12T01:19:19.680Z,92.66
2017-02-12T01:20:32.388Z,92.94
2017-02-12T01:21:45.460Z,92.9
2017-02-12T01:22:58.463Z,92.47
2017-02-12T01:24:11.589Z,93.04
2017-02-12T01:25:24.291Z,93.18
2017-02-12T01:26:37.318Z,92.47
2017-02-12T01:27:50.025Z,92.57
2017-02-12T01:29:03.149Z,92.38
2017-02-12T01:30:15.446Z,92.38
2017-02-12T01:31:28.559Z,92.38
2017-02-12T01:32:41.598Z,92.94
2017-02-12T01:33:54.611Z,92.38
2017-02-12T01:35:07.688Z,92.47
2017-02-12T01:36:20.394Z,92.66
2017-02-12T01:37:33.400Z,92.85
2017-02-12T01:38:46.459Z,92.1
2017-02-12T01:39:59.499Z,92.33
2017-02-12T01:41:12.545Z,92.47
2017-02-12T01:42:25.640Z,92.85
2017-02-12T01:43:38.329Z,93.32
2017-02-12T01:44:51.382Z,92.94
2017-02-12T01:46:04.688Z,92.47
2017-02-12T01:47:17.400Z,92.85
2017-02-12T01:48:30.457Z,92.76
2017-02-12T01:49:43.490Z,92.1
2017-02-12T01:50:56.563Z,92.85
2017-02-12T01:52:09.626Z,92.1
2017-02-12T01:53:22.713Z,92.38
2017-02-12T01:54:35.780Z,92.47
2017-02-12T01:55:48.826Z,92.38
2017-02-12T01:57:01.917Z,92.94
2017-02-12T01:58:14.641Z,92.94
2017-02-12T01:59:27.660Z,92.29
2017-02-12T02:00:40.679Z,92.29
2017-02-12T02:01:53.756Z,92.38
2017-02-12T02:03:06.853Z,92.19
2017-02-12T02:04:19.508Z,92.19
2017-02-12T02:05:32.529Z,92
2017-02-12T02:06:45.169Z,92
2017-02-12T02:07:58.246Z,92
2017-02-12T02:09:10.892Z,91.91
2017-02-12T02:10:23.568Z,91.91
2017-02-12T02:11:36.245Z,92
2017-02-12T02:12:49.328Z,92
2017-02-12T02:14:02.416Z,92.1
2017-02-12T02:15:15.496Z,92.38
2017-02-12T02:16:28.561Z,92.19
2017-02-12T02:17:41.721Z,91.82
2017-02-12T02:18:54.792Z,91.72
2017-02-12T02:20:07.419Z,92.1
2017-02-12T02:21:20.487Z,92.19
2017-02-12T02:22:33.540Z,92.29
2017-02-12T02:23:46.576Z,91.91
2017-02-12T02:24:59.624Z,92.29
2017-02-12T02:26:12.792Z,92.1
2017-02-12T02:27:25.900Z,91.82
2017-02-12T02:28:38.937Z,92.19
2017-02-12T02:29:52.024Z,91.63
2017-02-12T02:31:05.081Z,92.47
2017-02-12T02:32:18.124Z,92
2017-02-12T02:33:31.195Z,92.47
2017-02-12T02:34:44.264Z,91.91
2017-02-12T02:35:57.359Z,92
2017-02-12T02:37:10.432Z,91.91
2017-02-12T02:38:23.527Z,92.1
2017-02-12T02:39:36.547Z,92.19
2017-02-12T02:40:49.610Z,92.38
2017-02-12T02:42:02.713Z,92.47
2017-02-12T02:43:15.384Z,92.19
2017-02-12T02:44:28.455Z,92.38
2017-02-12T02:45:41.501Z,92.38
2017-02-12T02:46:54.553Z,92.19
2017-02-12T02:48:07.618Z,92.1
2017-02-12T02:49:20.641Z,91.82
2017-02-12T02:50:33.709Z,91.91
2017-02-12T02:51:46.717Z,91.91
2017-02-12T02:52:59.810Z,92.19
2017-02-12T02:54:12.904Z,92
2017-02-12T02:55:26.043Z,92.29
2017-02-12T02:56:39.096Z,91.72
2017-02-12T02:57:52.214Z,92
2017-02-12T02:59:05.288Z,91.91
2017-02-12T03:00:17.939Z,91.91
2017-02-12T03:01:30.627Z,91.91
2017-02-12T03:02:43.405Z,92
2017-02-12T03:03:56.458Z,92
2017-02-12T03:05:09.511Z,91.91
2017-02-12T03:06:22.549Z,91.82
2017-02-12T03:07:35.652Z,91.82
2017-02-12T03:08:48.409Z,91.72
2017-02-12T03:10:01.111Z,91.72
2017-02-12T03:11:14.215Z,92
2017-02-12T03:12:27.110Z,92.38
2017-02-12T03:13:39.762Z,92.1
2017-02-12T03:14:52.853Z,91.91
2017-02-12T03:16:05.530Z,92.29
2017-02-12T03:17:17.797Z,92
2017-02-12T03:18:30.859Z,91.72
2017-02-12T03:19:43.540Z,91.53
2017-02-12T03:20:56.682Z,91.53
2017-02-12T03:22:09.720Z,91.44
2017-02-12T03:23:22.455Z,91.91
2017-02-12T03:24:35.531Z,91.53
2017-02-12T03:25:48.569Z,91.44
2017-02-12T03:27:01.648Z,91.72
2017-02-12T03:28:14.706Z,92
2017-02-12T03:29:27.732Z,92
2017-02-12T03:30:40.366Z,91.72
2017-02-12T03:31:53.536Z,91.44
2017-02-12T03:33:06.601Z,91.63
2017-02-12T03:34:19.653Z,91.72
2017-02-12T03:35:32.693Z,91.63
2017-02-12T03:36:45.735Z,91.72
2017-02-12T03:37:58.777Z,91.82
2017-02-12T03:39:11.820Z,91.72
2017-02-12T03:40:24.843Z,91.63
2017-02-12T03:41:37.894Z,91.44
2017-02-12T03:42:50.656Z,91.72
2017-02-12T03:44:03.757Z,91.34
2017-02-12T03:45:16.479Z,90.96
2017-02-12T03:46:29.612Z,91.53
2017-02-12T03:47:42.691Z,91.72
2017-02-12T03:48:55.366Z,92.19
2017-02-12T03:50:08.483Z,92
2017-02-12T03:51:21.546Z,92.19
2017-02-12T03:52:34.650Z,91.91
2017-02-12T03:53:47.746Z,92.19
2017-02-12T03:55:00.817Z,92
2017-02-12T03:56:13.840Z,91.82
2017-02-12T03:57:26.924Z,92.38
2017-02-12T03:58:39.653Z,92
2017-02-12T03:59:52.756Z,91.34
2017-02-12T04:01:05.428Z,91.53
2017-02-12T04:02:18.116Z,91.53
2017-02-12T04:03:31.155Z,91.72
2017-02-12T04:04:43.832Z,91.91
2017-02-12T04:05:56.947Z,91.44
2017-02-12T04:07:09.994Z,91.53
2017-02-12T04:08:23.083Z,92
2017-02-12T04:09:36.230Z,91.72
2017-02-12T04:10:48.931Z,91.44
2017-02-12T04:12:01.594Z,91.72
2017-02-12T04:13:14.255Z,92.38
2017-02-12T04:14:27.375Z,92
2017-02-12T04:15:40.399Z,92.1
2017-02-12T04:16:53.123Z,92
2017-02-12T04:18:06.138Z,91.91
2017-02-12T04:19:18.796Z,91.82
2017-02-12T04:20:31.855Z,91.72
2017-02-12T04:21:44.918Z,91.34
2017-02-12T04:22:57.970Z,91.72
2017-02-12T04:24:11.004Z,91.72
2017-02-12T04:25:24.020Z,91.63
2017-02-12T04:26:37.085Z,91.63
2017-02-12T04:27:50.187Z,91.82
2017-02-12T04:29:03.332Z,91.72
2017-02-12T04:30:16.391Z,92
2017-02-12T04:31:29.480Z,92
2017-02-12T04:32:42.850Z,92
2017-02-12T04:33:55.909Z,91.91
2017-02-12T04:35:08.930Z,91.91
2017-02-12T04:36:21.994Z,92.29
2017-02-12T04:37:35.146Z,92
2017-02-12T04:38:48.448Z,91.72
2017-02-12T04:40:01.545Z,92.29
2017-02-12T04:41:14.590Z,92.47
2017-02-12T04:42:27.670Z,92.1
2017-02-12T04:43:40.852Z,92.38
2017-02-12T04:44:53.889Z,92
2017-02-12T04:46:06.918Z,92.38
2017-02-12T04:47:19.942Z,92.47
2017-02-12T04:48:33.048Z,91.91
2017-02-12T04:49:46.180Z,91.91
2017-02-12T04:50:59.193Z,92
2017-02-12T04:52:12.196Z,92
2017-02-12T04:53:24.818Z,92.47
2017-02-12T04:54:37.872Z,92.47
2017-02-12T04:55:50.998Z,92.57
2017-02-12T04:57:03.715Z,92.47
2017-02-12T04:58:16.412Z,92
2017-02-12T04:59:29.468Z,91.91
2017-02-12T05:00:42.525Z,92
2017-02-12T05:01:55.576Z,92.1
2017-02-12T05:03:08.612Z,91.82
2017-02-12T05:04:21.657Z,92.24
2017-02-12T05:05:34.745Z,92.43
2017-02-12T05:06:47.405Z,92.14
2017-02-12T05:08:00.569Z,91.96
2017-02-12T05:09:13.235Z,91.86
2017-02-12T05:10:26.258Z,92.43
2017-02-12T05:11:39.290Z,92.24
2017-02-12T05:12:52.033Z,92.33
2017-02-12T05:14:05.123Z,92.8
2017-02-12T05:15:17.411Z,92.71
2017-02-12T05:16:30.439Z,92.24
2017-02-12T05:17:43.073Z,92.43
2017-02-12T05:18:56.248Z,92.24
2017-02-12T05:20:09.290Z,92.38
2017-02-12T05:21:21.990Z,92.05
2017-02-12T05:22:35.081Z,92.71
2017-02-12T05:23:48.140Z,92.61
2017-02-12T05:25:01.197Z,92.71
2017-02-12T05:26:14.273Z,92.61
2017-02-12T05:27:27.359Z,92.9
2017-02-12T05:28:40.397Z,92.76
2017-02-12T05:29:53.395Z,92.33
2017-02-12T05:31:06.482Z,92.43
2017-02-12T05:32:19.554Z,92.38
2017-02-12T05:33:32.675Z,92.33
2017-02-12T05:34:45.303Z,92.29
2017-02-12T05:35:58.397Z,92.1
2017-02-12T05:37:11.125Z,92.33
2017-02-12T05:38:23.740Z,92.47
2017-02-12T05:39:36.793Z,92.43
2017-02-12T05:40:49.885Z,92.71
2017-02-12T05:42:02.929Z,93.09
2017-02-12T05:43:16.000Z,93.18
2017-02-12T05:44:29.045Z,92.61
2017-02-12T05:45:42.105Z,92.61
2017-02-12T05:46:55.175Z,93.18
2017-02-12T05:48:07.911Z,93.28
2017-02-12T05:49:20.669Z,92.99
2017-02-12T05:50:33.731Z,92.9
2017-02-12T05:51:46.020Z,93.61
2017-02-12T05:52:59.083Z,93.37
2017-02-12T05:54:12.060Z,93.37
2017-02-12T05:55:24.733Z,92.8
2017-02-12T05:56:37.778Z,92.8
2017-02-12T05:57:50.952Z,93.09
2017-02-12T05:59:04.023Z,92.52
2017-02-12T06:00:17.109Z,92.43
2017-02-12T06:01:30.124Z,92.9
2017-02-12T06:02:43.189Z,92.19
2017-02-12T06:03:56.265Z,92.57
2017-02-12T06:05:09.349Z,92.43
2017-02-12T06:06:22.426Z,92.33
2017-02-12T06:07:35.470Z,92.33
2017-02-12T06:08:48.568Z,92.43
2017-02-12T06:10:01.672Z,92.29
2017-02-12T06:11:14.788Z,92.14
2017-02-12T06:12:27.900Z,92.33
2017-02-12T06:13:41.043Z,92.52
2017-02-12T06:14:53.671Z,92.61
2017-02-12T06:16:06.741Z,92.61
2017-02-12T06:17:19.438Z,93.28
2017-02-12T06:18:32.516Z,93.09
2017-02-12T06:19:45.606Z,93.18
2017-02-12T06:20:58.719Z,93.09
2017-02-12T06:22:11.792Z,93.47
2017-02-12T06:23:24.845Z,92.99
2017-02-12T06:24:37.858Z,92.99
2017-02-12T06:25:50.906Z,92.94
2017-02-12T06:27:04.000Z,92.71
2017-02-12T06:28:17.026Z,92.52
2017-02-12T06:29:30.140Z,93.09
2017-02-12T06:30:43.187Z,92.71
2017-02-12T06:31:56.259Z,93.09
2017-02-12T06:33:09.366Z,92.71
2017-02-12T06:34:22.056Z,93.18
2017-02-12T06:35:35.139Z,92.8
2017-02-12T06:36:48.173Z,92.52
2017-02-12T06:38:01.269Z,92.99
2017-02-12T06:39:13.927Z,92.99
2017-02-12T06:40:27.063Z,92.99
2017-02-12T06:41:40.137Z,92.8
2017-02-12T06:42:53.189Z,93.18
2017-02-12T06:44:06.252Z,92.99
2017-02-12T06:45:19.319Z,93.47
2017-02-12T06:46:32.402Z,92.8
2017-02-12T06:47:45.487Z,92.61
2017-02-12T06:48:58.554Z,92.71
2017-02-12T06:50:11.675Z,93.28
2017-02-12T06:51:24.379Z,93.37
2017-02-12T06:52:37.395Z,93.56
2017-02-12T06:53:50.721Z,93.47
2017-02-12T06:55:03.796Z,92.99
2017-02-12T06:56:16.926Z,92.61
2017-02-12T06:57:29.942Z,92.43
2017-02-12T06:58:42.994Z,92.71
2017-02-12T06:59:56.030Z,92.8
2017-02-12T07:01:08.345Z,92.71
2017-02-12T07:02:21.460Z,92.99
2017-02-12T07:03:34.574Z,93.09
2017-02-12T07:04:47.579Z,92.99
2017-02-12T07:06:00.650Z,92.71
2017-02-12T07:07:13.707Z,93.37
2017-02-12T07:08:26.785Z,93.37
2017-02-12T07:09:39.881Z,93.09
2017-02-12T07:10:52.877Z,92.99
2017-02-12T07:12:05.535Z,92.99
2017-02-12T07:13:17.862Z,93.28
2017-02-12T07:14:30.866Z,93.18
2017-02-12T07:15:43.910Z,93.09
2017-02-12T07:16:56.937Z,93.28
2017-02-12T07:18:09.266Z,93.18
2017-02-12T07:19:21.948Z,93.09
2017-02-12T07:20:35.032Z,92.94
2017-02-12T07:21:48.082Z,92.8
2017-02-12T07:23:01.128Z,92.61
2017-02-12T07:24:14.149Z,92.52
2017-02-12T07:25:27.271Z,92.9
2017-02-12T07:26:40.349Z,92.61
2017-02-12T07:27:53.430Z,92.99
2017-02-12T07:29:06.522Z,92.61
2017-02-12T07:30:19.603Z,93.28
2017-02-12T07:31:32.688Z,93.04
2017-02-12T07:32:45.728Z,93.04
2017-02-12T07:33:58.827Z,92.47
2017-02-12T07:35:11.569Z,92.57
2017-02-12T07:36:24.628Z,92.47
2017-02-12T07:37:37.713Z,92.33
2017-02-12T07:38:50.757Z,92.47
2017-02-12T07:40:03.805Z,92.29
2017-02-12T07:41:16.876Z,92.38
2017-02-12T07:42:29.956Z,92.29
2017-02-12T07:43:43.042Z,92.29
2017-02-12T07:44:56.127Z,92.66
2017-02-12T07:46:09.201Z,92.94
2017-02-12T07:47:22.253Z,92.66
2017-02-12T07:48:35.577Z,92.66
2017-02-12T07:49:48.638Z,92.38
2017-02-12T07:51:01.705Z,92.19
2017-02-12T07:52:14.385Z,91.91
2017-02-12T07:53:27.507Z,91.91
2017-02-12T07:54:40.542Z,92.29
2017-02-12T07:55:53.655Z,92.29
2017-02-12T07:57:06.723Z,92.29
2017-02-12T07:58:19.398Z,92.66
2017-02-12T07:59:32.474Z,92.57
2017-02-12T08:00:45.174Z,92.47
2017-02-12T08:01:58.297Z,92.19
2017-02-12T08:03:10.592Z,92
2017-02-12T08:04:23.943Z,92.29
2017-02-12T08:05:37.009Z,92.19
2017-02-12T08:06:50.025Z,92.29
2017-02-12T08:08:03.090Z,91.72
2017-02-12T08:09:16.154Z,92
2017-02-12T08:10:29.251Z,91.72
2017-02-12T08:11:42.328Z,91.72
2017-02-12T08:12:55.494Z,91.72
2017-02-12T08:14:08.548Z,92.19
2017-02-12T08:15:21.608Z,92.19
2017-02-12T08:16:34.673Z,92.29
2017-02-12T08:17:47.353Z,91.63
2017-02-12T08:19:00.438Z,91.72
2017-02-12T08:20:13.121Z,91.91
2017-02-12T08:21:26.187Z,91.91
2017-02-12T08:22:39.258Z,91.63
2017-02-12T08:23:52.254Z,91.82
2017-02-12T08:25:05.356Z,91.44
2017-02-12T08:26:17.621Z,91.15
2017-02-12T08:27:30.691Z,90.96
2017-02-12T08:28:43.737Z,91.53
2017-02-12T08:29:56.862Z,91.25
2017-02-12T08:31:09.579Z,90.96
2017-02-12T08:32:22.274Z,90.96
2017-02-12T08:33:35.313Z,91.15
2017-02-12T08:34:48.396Z,90.87
2017-02-12T08:36:01.455Z,90.87
2017-02-12T08:37:14.459Z,91.06
2017-02-12T08:38:27.480Z,90.87
2017-02-12T08:39:40.574Z,90.4
2017-02-12T08:40:53.633Z,90.21
2017-02-12T08:42:06.728Z,90.77
2017-02-12T08:43:19.813Z,90.49
2017-02-12T08:44:32.852Z,90.49
2017-02-12T08:45:45.912Z,90.4
2017-02-12T08:46:58.968Z,90.59
2017-02-12T08:48:12.054Z,90.96
2017-02-12T08:49:25.135Z,90.68
2017-02-12T08:50:38.222Z,90.96
2017-02-12T08:51:51.309Z,90.68
2017-02-12T08:53:04.330Z,90.49
2017-02-12T08:54:16.652Z,90.21
2017-02-12T08:55:29.733Z,90.49
2017-02-12T08:56:42.820Z,89.83
2017-02-12T08:57:55.912Z,89.83
2017-02-12T08:59:08.634Z,89.83
2017-02-12T09:00:21.334Z,89.36
2017-02-12T09:01:34.402Z,90.21
2017-02-12T09:02:47.421Z,89.92
2017-02-12T09:04:00.752Z,89.92
2017-02-12T09:05:13.455Z,89.73
2017-02-12T09:06:26.560Z,89.83
2017-02-12T09:07:39.685Z,90.3
2017-02-12T09:08:52.779Z,89.92
2017-02-12T09:10:05.904Z,89.26
2017-02-12T09:11:18.593Z,88.79
2017-02-12T09:12:31.696Z,88.7
2017-02-12T09:13:44.842Z,89.07
2017-02-12T09:14:57.945Z,89.26
2017-02-12T09:16:10.311Z,88.89
2017-02-12T09:17:23.023Z,89.17
2017-02-12T09:18:36.087Z,88.79
2017-02-12T09:19:48.815Z,88.79
2017-02-12T09:21:01.888Z,89.17
2017-02-12T09:22:14.179Z,89.31
2017-02-12T09:23:27.260Z,89.12
2017-02-12T09:24:40.301Z,89.03
2017-02-12T09:25:53.643Z,88.74
2017-02-12T09:27:06.725Z,88.55
2017-02-12T09:28:19.833Z,88.55
2017-02-12T09:29:32.909Z,87.7
2017-02-12T09:30:45.927Z,87.89
2017-02-12T09:31:58.989Z,87.79
2017-02-12T09:33:12.034Z,87.79
2017-02-12T09:34:24.338Z,87.89
2017-02-12T09:35:37.402Z,88.17
2017-02-12T09:36:50.500Z,87.79
2017-02-12T09:38:03.527Z,88.08
2017-02-12T09:39:16.222Z,87.7
2017-02-12T09:40:29.269Z,87.51
2017-02-12T09:41:42.307Z,87.7
2017-02-12T09:42:55.340Z,87.51
2017-02-12T09:44:07.996Z,87.51
2017-02-12T09:45:20.334Z,87.51
2017-02-12T09:46:33.384Z,87.32
2017-02-12T09:47:46.653Z,87.32
2017-02-12T09:48:59.397Z,87.51
2017-02-12T09:50:12.135Z,86.94
2017-02-12T09:51:24.805Z,87.13
2017-02-12T09:52:37.479Z,86.76
2017-02-12T09:53:50.497Z,86.94
2017-02-12T09:55:03.625Z,86.66
2017-02-12T09:56:16.702Z,87.61
2017-02-12T09:57:29.788Z,87.32
2017-02-12T09:58:43.159Z,86.85
2017-02-12T09:59:56.194Z,87.04
2017-02-12T10:01:09.335Z,87.13
2017-02-12T10:02:22.400Z,86.76
2017-02-12T10:03:35.466Z,86.76
2017-02-12T10:04:48.461Z,86
2017-02-12T10:06:01.555Z,86
2017-02-12T10:07:14.219Z,86.29
2017-02-12T10:08:27.290Z,86.38
2017-02-12T10:09:40.408Z,86.47
2017-02-12T10:10:53.471Z,86.47
2017-02-12T10:12:06.516Z,86.19
2017-02-12T10:13:19.631Z,86.19
2017-02-12T10:14:32.689Z,86.47
2017-02-12T10:15:45.774Z,86.29
2017-02-12T10:16:58.794Z,85.72
2017-02-12T10:18:11.095Z,85.72
2017-02-12T10:19:23.364Z,85.72
2017-02-12T10:20:36.407Z,85.34
2017-02-12T10:21:48.703Z,85.34
2017-02-12T10:23:01.774Z,85.15
2017-02-12T10:24:14.462Z,84.86
2017-02-12T10:25:27.526Z,85.43
2017-02-12T10:26:40.628Z,85.43
2017-02-12T10:27:53.693Z,85.72
2017-02-12T10:29:06.778Z,85.81
2017-02-12T10:30:19.913Z,85.43
2017-02-12T10:31:32.971Z,85.24
2017-02-12T10:32:46.096Z,85.15
2017-02-12T10:33:59.155Z,85
2017-02-12T10:35:11.866Z,84.68
2017-02-12T10:36:24.990Z,84.58
2017-02-12T10:37:38.055Z,84.72
2017-02-12T10:38:51.178Z,84.44
2017-02-12T10:40:04.191Z,84.39
2017-02-12T10:41:16.847Z,84.58
2017-02-12T10:42:29.920Z,84.86
2017-02-12T10:43:43.019Z,84.49
2017-02-12T10:44:56.081Z,84.77
2017-02-12T10:46:09.144Z,84.86
2017-02-12T10:47:21.834Z,84.68
2017-02-12T10:48:34.592Z,84.68
2017-02-12T10:49:47.608Z,84.86
2017-02-12T10:51:00.689Z,85
2017-02-12T10:52:13.786Z,84.58
2017-02-12T10:53:26.845Z,84.44
2017-02-12T10:54:39.940Z,84.81
2017-02-12T10:55:52.238Z,84.72
2017-02-12T10:57:05.340Z,84.39
2017-02-12T10:58:18.427Z,84.06
2017-02-12T10:59:31.482Z,84.16
2017-02-12T11:00:44.163Z,84.25
2017-02-12T11:01:57.210Z,83.68
2017-02-12T11:03:10.294Z,84.25
2017-02-12T11:04:23.385Z,83.87
2017-02-12T11:05:36.392Z,84.25
2017-02-12T11:06:49.474Z,84.44
2017-02-12T11:08:02.153Z,83.97
2017-02-12T11:09:14.791Z,83.97
2017-02-12T11:10:27.469Z,83.59
2017-02-12T11:11:40.520Z,83.21
2017-02-12T11:12:53.587Z,83.59
2017-02-12T11:14:06.911Z,83.68
2017-02-12T11:15:19.197Z,82.92
2017-02-12T11:16:32.281Z,82.45
2017-02-12T11:17:45.376Z,82.45
2017-02-12T11:18:58.513Z,83.3
2017-02-12T11:20:11.590Z,82.92
2017-02-12T11:21:23.899Z,82.54
2017-02-12T11:22:36.934Z,82.26
2017-02-12T11:23:49.949Z,82.26
2017-02-12T11:25:03.177Z,81.6
2017-02-12T11:26:16.337Z,82.35
2017-02-12T11:27:29.363Z,82.54
2017-02-12T11:28:42.401Z,81.7
2017-02-12T11:29:55.422Z,82.35
2017-02-12T11:31:08.097Z,82.17
2017-02-12T11:32:21.165Z,81.6
2017-02-12T11:33:34.287Z,81.79
2017-02-12T11:34:47.317Z,82.35
2017-02-12T11:35:59.976Z,81.6
2017-02-12T11:37:13.053Z,81.36
2017-02-12T11:38:26.112Z,81.41
2017-02-12T11:39:39.170Z,80.75
2017-02-12T11:40:52.209Z,81.13
2017-02-12T11:42:05.631Z,81.51
2017-02-12T11:43:18.677Z,80.94
2017-02-12T11:44:31.729Z,81.32
2017-02-12T11:45:44.794Z,81.03
2017-02-12T11:46:57.832Z,81.22
2017-02-12T11:48:10.520Z,81.45
2017-02-12T11:49:22.835Z,81.17
2017-02-12T11:50:35.954Z,81.83
2017-02-12T11:51:49.025Z,81.45
2017-02-12T11:53:02.095Z,81.36
2017-02-12T11:54:15.208Z,80.51
2017-02-12T11:55:27.917Z,80.32
2017-02-12T11:56:41.014Z,80.32
2017-02-12T11:57:54.414Z,80.32
2017-02-12T11:59:07.492Z,80.32
2017-02-12T12:00:20.168Z,80.22
2017-02-12T12:01:33.190Z,80.51
2017-02-12T12:02:46.338Z,80.22
2017-02-12T12:03:59.359Z,80.41
2017-02-12T12:05:12.453Z,80.13
2017-02-12T12:06:25.455Z,79.75
2017-02-12T12:07:38.519Z,79.85
2017-02-12T12:08:51.616Z,80.04
2017-02-12T12:10:04.687Z,79.75
2017-02-12T12:11:17.414Z,79.66
2017-02-12T12:12:30.481Z,79.18
2017-02-12T12:13:43.130Z,79.28
2017-02-12T12:14:56.206Z,79.28
2017-02-12T12:16:08.094Z,79.28
2017-02-12T12:17:20.787Z,79.09
2017-02-12T12:18:33.851Z,79.37
2017-02-12T12:19:47.138Z,79.09
2017-02-12T12:21:00.150Z,78.9
2017-02-12T12:22:13.227Z,78.8
2017-02-12T12:23:26.317Z,79.28
2017-02-12T12:24:39.375Z,78.99
2017-02-12T12:25:52.465Z,79.28
2017-02-12T12:27:05.555Z,79.09
2017-02-12T12:28:18.193Z,79.56
2017-02-12T12:29:31.227Z,79.56
2017-02-12T12:30:44.270Z,79.56
2017-02-12T12:31:57.355Z,79.66
2017-02-12T12:33:10.012Z,79.66
2017-02-12T12:34:22.260Z,79.47
2017-02-12T12:35:35.437Z,79.28
2017-02-12T12:36:48.494Z,79.28
2017-02-12T12:38:01.225Z,77.67
2017-02-12T12:39:14.274Z,78.05
2017-02-12T12:40:27.034Z,78.14
2017-02-12T12:41:40.055Z,78.33
2017-02-12T12:42:52.749Z,77.86
2017-02-12T12:44:05.747Z,78.33
2017-02-12T12:45:18.794Z,78.42
2017-02-12T12:46:31.875Z,78.61
2017-02-12T12:47:44.953Z,78.05
2017-02-12T12:48:57.688Z,77.67
2017-02-12T12:50:10.802Z,77.86
2017-02-12T12:51:23.497Z,77.48
2017-02-12T12:52:36.544Z,78.14
2017-02-12T12:53:49.638Z,77.01
2017-02-12T12:55:02.673Z,77.2
2017-02-12T12:56:15.809Z,76.63
2017-02-12T12:57:28.844Z,77.01
2017-02-12T12:58:41.871Z,77.01
2017-02-12T12:59:54.943Z,77.1
2017-02-12T13:01:08.054Z,77.67
2017-02-12T13:02:21.146Z,77.58
2017-02-12T13:03:33.862Z,77.48
2017-02-12T13:04:46.983Z,77.58
2017-02-12T13:06:00.034Z,77.95
2017-02-12T13:07:13.142Z,77.95
2017-02-12T13:08:25.839Z,77.86
2017-02-12T13:09:38.935Z,77.67
2017-02-12T13:10:51.992Z,78.23
2017-02-12T13:12:04.326Z,78.33
2017-02-12T13:13:17.384Z,78.42
2017-02-12T13:14:30.511Z,78.52
2017-02-12T13:15:43.549Z,79.56
2017-02-12T13:16:56.660Z,79.47
2017-02-12T13:18:09.776Z,79.94
2017-02-12T13:19:23.036Z,80.13
2017-02-12T13:20:36.135Z,80.56
2017-02-12T13:21:49.162Z,80.37
2017-02-12T13:23:02.182Z,80.27
2017-02-12T13:24:14.838Z,80.27
2017-02-12T13:25:27.971Z,79.75
2017-02-12T13:26:41.063Z,79.66
2017-02-12T13:27:54.190Z,79.85
2017-02-12T13:29:07.219Z,79.56
2017-02-12T13:30:20.342Z,79.85
2017-02-12T13:31:33.471Z,79.09
2017-02-12T13:32:46.582Z,78.8
2017-02-12T13:33:59.270Z,78.9
2017-02-12T13:35:12.356Z,78.9
2017-02-12T13:36:25.050Z,79.09
2017-02-12T13:37:38.139Z,79.09
2017-02-12T13:38:51.242Z,79.37
2017-02-12T13:40:04.318Z,78.61
2017-02-12T13:41:17.032Z,78.33
2017-02-12T13:42:30.099Z,78.52
2017-02-12T13:43:43.169Z,78.33
2017-02-12T13:44:56.221Z,78.42
2017-02-12T13:46:09.364Z,78.71
2017-02-12T13:47:22.432Z,78.42
2017-02-12T13:48:35.153Z,78.52
2017-02-12T13:49:48.228Z,78.42
2017-02-12T13:51:01.288Z,79.09
2017-02-12T13:52:13.942Z,79.09
2017-02-12T13:53:26.601Z,78.8
2017-02-12T13:54:39.707Z,78.61
2017-02-12T13:55:52.775Z,78.8
2017-02-12T13:57:05.474Z,79.28
2017-02-12T13:58:18.533Z,79.18
2017-02-12T13:59:31.615Z,78.99
2017-02-12T14:00:44.746Z,78.33
2017-02-12T14:01:58.057Z,78.52
2017-02-12T14:03:10.760Z,78.61
2017-02-12T14:04:23.856Z,78.52
2017-02-12T14:05:36.995Z,78.8
2017-02-12T14:06:50.067Z,78.52
2017-02-12T14:08:03.177Z,78.67
2017-02-12T14:09:15.906Z,78.67
2017-02-12T14:10:28.981Z,78.61
2017-02-12T14:11:42.074Z,78.86
2017-02-12T14:12:55.121Z,78.9
2017-02-12T14:14:08.141Z,79.61
2017-02-12T14:15:20.838Z,79.43
2017-02-12T14:16:33.925Z,79.8
2017-02-12T14:17:47.054Z,79.9
2017-02-12T14:19:00.137Z,79.37
2017-02-12T14:20:13.206Z,79.05
2017-02-12T14:21:26.250Z,78.76
2017-02-12T14:22:39.319Z,79.8
2017-02-12T14:23:52.383Z,79.99
2017-02-12T14:25:05.061Z,79.61
2017-02-12T14:26:18.132Z,79.61
2017-02-12T14:27:31.271Z,79.99
2017-02-12T14:28:44.316Z,79.61
2017-02-12T14:29:57.390Z,79.8
2017-02-12T14:31:10.619Z,80.46
2017-02-12T14:32:23.690Z,80.65
2017-02-12T14:33:36.781Z,80.27
2017-02-12T14:34:49.822Z,80.37
2017-02-12T14:36:02.878Z,80.18
2017-02-12T14:37:15.612Z,80.84
2017-02-12T14:38:28.683Z,80.46
2017-02-12T14:39:41.811Z,80.37
2017-02-12T14:40:54.936Z,80.18
2017-02-12T14:42:07.637Z,80.65
2017-02-12T14:43:20.317Z,81.51
2017-02-12T14:44:32.982Z,81.32
2017-02-12T14:45:46.059Z,80.84
2017-02-12T14:46:59.096Z,80.94
2017-02-12T14:48:11.773Z,81.03
2017-02-12T14:49:24.499Z,80.75
2017-02-12T14:50:37.573Z,80.94
2017-02-12T14:51:50.662Z,80.46
2017-02-12T14:53:03.702Z,80.75
2017-02-12T14:54:16.356Z,80.94
2017-02-12T14:55:29.437Z,80.84
2017-02-12T14:56:42.579Z,80.56
2017-02-12T14:57:55.621Z,80.94
2017-02-12T14:59:08.705Z,80.94
2017-02-12T15:00:21.843Z,81.51
2017-02-12T15:01:34.905Z,81.03
2017-02-12T15:02:47.957Z,81.6
2017-02-12T15:04:00.621Z,81.6
2017-02-12T15:05:13.730Z,81.41
2017-02-12T15:06:26.845Z,80.75
2017-02-12T15:07:39.496Z,80.37
2017-02-12T15:08:52.530Z,80.65
2017-02-12T15:10:05.229Z,80.27
2017-02-12T15:11:18.340Z,80.46
2017-02-12T15:12:31.454Z,80.94
2017-02-12T15:13:44.531Z,80.94
2017-02-12T15:14:57.659Z,81.32
2017-02-12T15:16:10.724Z,81.03
2017-02-12T15:17:23.810Z,81.22
2017-02-12T15:18:36.925Z,81.41
2017-02-12T15:19:49.991Z,81.6
2017-02-12T15:21:02.263Z,81.84
2017-02-12T15:22:14.535Z,82.26
2017-02-12T15:23:27.684Z,82.26
2017-02-12T15:24:40.402Z,82.26
2017-02-12T15:25:53.472Z,82.35
2017-02-12T15:27:06.566Z,82.64
2017-02-12T15:28:19.203Z,82.83
2017-02-12T15:29:32.286Z,81.7
2017-02-12T15:30:45.040Z,81.46
2017-02-12T15:31:58.094Z,82.22
2017-02-12T15:33:10.823Z,81.84
2017-02-12T15:34:23.932Z,81.7
2017-02-12T15:35:37.045Z,81.56
2017-02-12T15:36:50.196Z,81.6
2017-02-12T15:38:03.298Z,81.74
2017-02-12T15:39:16.253Z,82.22
2017-02-12T15:40:29.350Z,82.88
2017-02-12T15:41:42.010Z,82.88
2017-02-12T15:42:55.068Z,82.79
2017-02-12T15:44:07.717Z,82.35
2017-02-12T15:45:20.798Z,81.65
2017-02-12T15:46:33.875Z,81.46